createdAt,value
2017-08-19T00:00:29.512Z,2.10
2017-08-19T00:02:55.777Z,2.03
2017-08-19T00:05:22.018Z,2.20
2017-08-19T00:07:48.247Z,2.90
2017-08-19T00:10:14.954Z,2.47
2017-08-19T00:12:41.506Z,2.60
2017-08-19T00:15:07.783Z,2.97
2017-08-19T00:17:34.036Z,2.50
2017-08-19T00:20:00.266Z,2.57
2017-08-19T00:22:26.494Z,2.77
2017-08-19T00:24:53.030Z,2.87
2017-08-19T00:27:19.262Z,3.20
2017-08-19T00:29:45.518Z,2.43
2017-08-19T00:32:11.834Z,2.80
2017-08-19T00:34:38.078Z,3.30
2017-08-19T00:37:04.758Z,3.37
2017-08-19T00:39:31.038Z,2.73
2017-08-19T00:41:57.306Z,3.10
2017-08-19T00:44:23.547Z,2.73
2017-08-19T00:46:49.839Z,2.80
2017-08-19T00:49:16.106Z,3.20
2017-08-19T00:51:42.483Z,2.57
2017-08-19T00:54:08.946Z,2.60
2017-08-19T00:56:35.199Z,3.27
2017-08-19T00:59:01.450Z,2.70
2017-08-19T01:01:28.206Z,3.00
2017-08-19T01:03:54.458Z,3.30
2017-08-19T01:06:20.728Z,2.97
2017-08-19T01:08:47.030Z,2.70
2017-08-19T01:11:13.497Z,3.50
2017-08-19T01:13:40.296Z,3.70
2017-08-19T01:16:06.694Z,3.20
2017-08-19T01:18:32.910Z,3.40
2017-08-19T01:20:59.186Z,3.53
2017-08-19T01:23:25.474Z,3.13
2017-08-19T01:26:03.957Z,3.80
2017-08-19T01:28:30.327Z,3.57
2017-08-19T01:30:56.558Z,3.10
2017-08-19T01:33:22.782Z,4.90
2017-08-19T01:35:49.543Z,3.67
2017-08-19T01:38:15.770Z,2.50
2017-08-19T01:40:42.003Z,4.20
2017-08-19T01:43:09.551Z,3.10
2017-08-19T01:45:35.786Z,4.10
2017-08-19T01:48:02.055Z,5.27
2017-08-19T01:50:28.307Z,2.83
2017-08-19T01:52:54.529Z,3.33
2017-08-19T01:55:20.765Z,2.80
2017-08-19T01:57:47.072Z,3.57
2017-08-19T02:00:13.303Z,3.10
2017-08-19T02:02:39.534Z,3.63
2017-08-19T02:05:05.794Z,3.27
2017-08-19T02:07:32.022Z,3.07
2017-08-19T02:09:58.251Z,2.90
2017-08-19T02:12:24.511Z,3.40
2017-08-19T02:14:50.966Z,3.07
2017-08-19T02:17:17.200Z,2.70
2017-08-19T02:19:43.514Z,3.47
2017-08-19T02:22:09.788Z,3.20
2017-08-19T02:24:36.017Z,3.13
2017-08-19T02:27:02.271Z,2.90
2017-08-19T02:29:28.506Z,3.00
2017-08-19T02:31:54.740Z,3.20
2017-08-19T02:34:20.993Z,3.07
2017-08-19T02:36:47.222Z,2.83
2017-08-19T02:39:13.451Z,3.13
2017-08-19T02:41:39.750Z,2.73
2017-08-19T02:44:05.971Z,3.10
2017-08-19T02:46:32.198Z,2.53
2017-08-19T02:48:58.478Z,2.87
2017-08-19T02:51:24.711Z,2.70
2017-08-19T02:53:50.969Z,3.00
2017-08-19T02:56:17.474Z,2.60
2017-08-19T02:58:43.842Z,2.93
2017-08-19T03:01:10.091Z,2.53
2017-08-19T03:03:36.530Z,2.57
2017-08-19T03:06:02.774Z,2.40
2017-08-19T03:08:29.023Z,2.93
2017-08-19T03:10:55.282Z,2.87
2017-08-19T03:13:21.819Z,2.70
2017-08-19T03:15:48.398Z,2.60
2017-08-19T03:18:14.654Z,2.80
2017-08-19T03:20:40.886Z,2.90
2017-08-19T03:23:07.351Z,2.70
2017-08-19T03:25:33.685Z,2.50
2017-08-19T03:27:59.910Z,2.63
2017-08-19T03:30:26.139Z,2.77
2017-08-19T03:32:52.386Z,3.00
2017-08-19T03:35:18.622Z,2.20
2017-08-19T03:37:44.851Z,2.47
2017-08-19T03:40:11.102Z,2.40
2017-08-19T03:42:37.330Z,2.20
2017-08-19T03:45:03.580Z,2.50
2017-08-19T03:47:30.182Z,2.57
2017-08-19T03:49:56.418Z,2.10
2017-08-19T03:52:22.649Z,1.63
2017-08-19T03:54:48.910Z,1.70
2017-08-19T03:57:15.131Z,2.30
2017-08-19T03:59:41.391Z,2.20
2017-08-19T04:02:07.679Z,2.20
2017-08-19T04:04:33.924Z,2.67
2017-08-19T04:07:00.150Z,2.50
2017-08-19T04:09:27.638Z,2.13
2017-08-19T04:11:53.995Z,2.00
2017-08-19T04:14:20.221Z,2.30
2017-08-19T04:16:46.887Z,2.33
2017-08-19T04:19:13.122Z,2.30
2017-08-19T04:21:39.598Z,2.07
2017-08-19T04:24:05.846Z,2.00
2017-08-19T04:26:32.075Z,2.07
2017-08-19T04:28:58.591Z,2.10
2017-08-19T04:31:25.066Z,2.27
2017-08-19T04:33:51.318Z,2.77
2017-08-19T04:36:17.570Z,1.93
2017-08-19T04:38:43.834Z,2.47
2017-08-19T04:41:10.086Z,2.40
2017-08-19T04:43:36.323Z,2.47
2017-08-19T04:46:03.326Z,2.23
2017-08-19T04:48:29.550Z,2.27
2017-08-19T04:50:55.818Z,2.23
2017-08-19T04:53:22.408Z,3.00
2017-08-19T04:55:48.947Z,2.30
2017-08-19T04:58:15.177Z,1.80
2017-08-19T05:00:41.426Z,2.60
2017-08-19T05:03:07.660Z,1.70
2017-08-19T05:05:33.890Z,2.70
2017-08-19T05:08:00.143Z,2.10
2017-08-19T05:10:26.390Z,2.27
2017-08-19T05:12:52.622Z,2.10
2017-08-19T05:15:19.070Z,2.33
2017-08-19T05:17:45.968Z,2.40
2017-08-19T05:20:12.216Z,2.63
2017-08-19T05:22:38.722Z,2.63
2017-08-19T05:25:04.952Z,1.90
2017-08-19T05:27:31.211Z,1.80
2017-08-19T05:29:57.466Z,1.73
2017-08-19T05:32:23.693Z,2.20
2017-08-19T05:34:50.010Z,1.70
2017-08-19T05:37:16.395Z,1.47
2017-08-19T05:39:42.622Z,2.10
2017-08-19T05:42:08.843Z,1.70
2017-08-19T05:44:35.094Z,2.20
2017-08-19T05:47:01.587Z,2.07
2017-08-19T05:49:27.862Z,2.33
2017-08-19T05:51:54.118Z,1.70
2017-08-19T05:54:20.341Z,1.97
2017-08-19T05:56:46.571Z,1.93
2017-08-19T05:59:12.917Z,1.90
2017-08-19T06:01:39.290Z,2.10
2017-08-19T06:04:05.730Z,1.83
2017-08-19T06:06:33.304Z,2.17
2017-08-19T06:09:01.144Z,1.97
2017-08-19T06:11:28.551Z,2.20
2017-08-19T06:13:55.486Z,2.30
2017-08-19T06:16:23.545Z,1.93
2017-08-19T06:18:50.233Z,2.43
2017-08-19T06:21:17.682Z,2.03
2017-08-19T06:23:45.156Z,2.00
2017-08-19T06:26:11.684Z,2.60
2017-08-19T06:28:37.971Z,2.30
2017-08-19T06:31:06.607Z,2.40
2017-08-19T06:33:34.265Z,2.27
2017-08-19T06:36:01.870Z,2.90
2017-08-19T06:38:28.505Z,2.83
2017-08-19T06:40:56.104Z,2.10
2017-08-19T06:43:24.716Z,2.30
2017-08-19T06:45:51.010Z,2.40
2017-08-19T06:48:17.238Z,2.43
2017-08-19T06:50:43.533Z,2.33
2017-08-19T06:53:10.559Z,2.43
2017-08-19T06:55:37.638Z,2.97
2017-08-19T06:58:03.918Z,2.30
2017-08-19T07:00:30.386Z,2.40
2017-08-19T07:02:58.514Z,2.37
2017-08-19T07:05:25.826Z,2.53
2017-08-19T07:07:52.430Z,2.50
2017-08-19T07:10:18.683Z,2.70
2017-08-19T07:12:44.997Z,1.67
2017-08-19T07:15:11.348Z,2.50
2017-08-19T07:17:37.618Z,2.30
2017-08-19T07:20:04.178Z,2.73
2017-08-19T07:22:30.416Z,2.03
2017-08-19T07:24:56.846Z,2.50
2017-08-19T07:27:23.351Z,3.00
2017-08-19T07:29:49.602Z,2.23
2017-08-19T07:32:15.835Z,2.20
2017-08-19T07:34:42.095Z,2.20
2017-08-19T07:37:08.342Z,1.90
2017-08-19T07:39:34.567Z,2.13
2017-08-19T07:42:01.704Z,1.80
2017-08-19T07:44:27.939Z,2.07
2017-08-19T07:46:54.167Z,1.73
2017-08-19T07:49:20.910Z,2.20
2017-08-19T07:51:47.130Z,2.23
2017-08-19T07:54:13.358Z,2.30
2017-08-19T07:56:39.611Z,2.30
2017-08-19T07:59:05.826Z,1.93
2017-08-19T08:01:32.046Z,2.13
2017-08-19T08:03:58.315Z,1.73
2017-08-19T08:06:24.562Z,2.53
2017-08-19T08:08:50.804Z,1.83
2017-08-19T08:11:17.575Z,1.53
2017-08-19T08:13:43.814Z,2.37
2017-08-19T08:16:10.042Z,2.33
2017-08-19T08:18:36.298Z,1.50
2017-08-19T08:21:02.942Z,2.40
2017-08-19T08:23:29.406Z,3.30
2017-08-19T08:25:55.945Z,1.97
2017-08-19T08:28:22.180Z,1.70
2017-08-19T08:30:48.402Z,2.13
2017-08-19T08:33:15.074Z,1.80
2017-08-19T08:35:41.307Z,1.47
2017-08-19T08:38:07.539Z,2.60
2017-08-19T08:40:33.795Z,1.70
2017-08-19T08:43:00.037Z,1.97
2017-08-19T08:45:26.282Z,1.03
2017-08-19T08:47:52.583Z,1.80
2017-08-19T08:50:18.823Z,1.40
2017-08-19T08:52:45.071Z,2.47
2017-08-19T08:55:11.543Z,2.00
2017-08-19T08:57:37.782Z,1.90
2017-08-19T09:00:04.114Z,2.30
2017-08-19T09:02:30.399Z,1.67
2017-08-19T09:04:56.633Z,1.67
2017-08-19T09:07:22.858Z,1.60
2017-08-19T09:09:49.106Z,1.70
2017-08-19T09:12:15.526Z,1.70
2017-08-19T09:14:41.754Z,1.97
2017-08-19T09:17:08.158Z,2.07
2017-08-19T09:19:35.350Z,1.83
2017-08-19T09:22:02.274Z,2.10
2017-08-19T09:24:28.538Z,1.80
2017-08-19T09:26:54.762Z,1.70
2017-08-19T09:29:20.994Z,2.77
2017-08-19T09:31:48.438Z,1.90
2017-08-19T09:34:14.947Z,1.90
2017-08-19T09:36:41.178Z,1.60
2017-08-19T09:39:07.958Z,1.70
2017-08-19T09:41:34.188Z,1.67
2017-08-19T09:44:02.099Z,1.73
2017-08-19T09:46:28.370Z,1.60
2017-08-19T09:48:54.615Z,1.60
2017-08-19T09:51:20.870Z,2.07
2017-08-19T09:53:47.137Z,1.60
2017-08-19T09:56:13.364Z,1.60
2017-08-19T09:58:40.760Z,2.10
2017-08-19T10:01:07.089Z,2.50
2017-08-19T10:03:33.322Z,2.30
2017-08-19T10:05:59.555Z,1.70
2017-08-19T10:08:38.055Z,1.73
2017-08-19T10:11:16.670Z,1.87
2017-08-19T10:13:43.422Z,1.70
2017-08-19T10:16:09.743Z,1.90
2017-08-19T10:18:35.970Z,1.57
2017-08-19T10:21:02.419Z,1.60
2017-08-19T10:23:29.325Z,2.03
2017-08-19T10:25:55.865Z,2.00
2017-08-19T10:28:22.469Z,2.40
2017-08-19T10:30:49.853Z,2.20
2017-08-19T10:33:17.046Z,2.20
2017-08-19T10:35:44.066Z,2.07
2017-08-19T10:38:12.536Z,2.03
2017-08-19T10:40:38.762Z,2.30
2017-08-19T10:43:05.018Z,2.50
2017-08-19T10:45:31.254Z,3.00
2017-08-19T10:47:57.764Z,1.50
2017-08-19T10:50:24.318Z,1.30
2017-08-19T10:52:50.822Z,2.17
2017-08-19T10:55:17.622Z,2.13
2017-08-19T10:57:44.142Z,1.83
2017-08-19T11:00:10.848Z,1.70
2017-08-19T11:02:37.274Z,2.20
2017-08-19T11:05:03.842Z,2.23
2017-08-19T11:07:30.347Z,2.73
2017-08-19T11:09:56.577Z,1.93
2017-08-19T11:12:23.130Z,2.23
2017-08-19T11:14:49.638Z,2.17
2017-08-19T11:17:17.409Z,1.93
2017-08-19T11:19:43.970Z,2.17
2017-08-19T11:22:10.510Z,1.70
2017-08-19T11:24:37.330Z,2.10
2017-08-19T11:27:03.899Z,2.13
2017-08-19T11:29:33.201Z,2.10
2017-08-19T11:31:59.702Z,2.00
2017-08-19T11:34:26.298Z,2.03
2017-08-19T11:36:53.711Z,1.87
2017-08-19T11:39:20.835Z,2.30
2017-08-19T11:41:47.090Z,1.93
2017-08-19T11:44:13.310Z,1.97
2017-08-19T11:46:39.844Z,1.90
2017-08-19T11:49:06.391Z,1.83
2017-08-19T11:51:32.900Z,2.00
2017-08-19T11:53:59.141Z,1.90
2017-08-19T11:56:25.394Z,2.10
2017-08-19T11:58:51.698Z,1.30
2017-08-19T12:01:18.130Z,1.90
2017-08-19T12:03:44.688Z,1.40
2017-08-19T12:06:11.197Z,1.63
2017-08-19T12:08:37.427Z,1.50
2017-08-19T12:11:04.002Z,1.53
2017-08-19T12:13:30.975Z,1.93
2017-08-19T12:15:57.207Z,1.70
2017-08-19T12:18:24.512Z,1.63
2017-08-19T12:20:51.022Z,1.30
2017-08-19T12:23:17.562Z,1.63
2017-08-19T12:25:44.730Z,1.50
2017-08-19T12:28:11.248Z,1.60
2017-08-19T12:30:37.478Z,2.33
2017-08-19T12:33:03.744Z,1.67
2017-08-19T12:35:30.718Z,1.40
2017-08-19T12:37:57.521Z,1.33
2017-08-19T12:40:23.814Z,2.07
2017-08-19T12:42:50.035Z,1.63
2017-08-19T12:45:18.550Z,1.93
2017-08-19T12:47:44.868Z,1.33
2017-08-19T12:50:11.092Z,1.60
2017-08-19T12:52:38.983Z,1.47
2017-08-19T12:55:05.846Z,1.07
2017-08-19T12:57:33.366Z,1.50
2017-08-19T12:59:59.611Z,1.57
2017-08-19T13:02:26.156Z,1.50
2017-08-19T13:04:52.390Z,1.40
2017-08-19T13:07:18.636Z,1.37
2017-08-19T13:09:45.146Z,1.80
2017-08-19T13:12:11.690Z,1.57
2017-08-19T13:14:37.929Z,2.30
2017-08-19T13:17:05.375Z,1.10
2017-08-19T13:19:31.882Z,1.60
2017-08-19T13:21:58.418Z,1.30
2017-08-19T13:24:24.690Z,1.60
2017-08-19T13:26:51.498Z,1.23
2017-08-19T13:29:18.067Z,1.77
2017-08-19T13:31:44.606Z,1.50
2017-08-19T13:34:12.961Z,1.80
2017-08-19T13:36:40.423Z,1.20
2017-08-19T13:39:08.882Z,1.10
2017-08-19T13:41:35.671Z,1.33
2017-08-19T13:44:02.170Z,1.60
2017-08-19T13:46:28.737Z,1.27
2017-08-19T13:48:55.225Z,1.40
2017-08-19T13:51:21.779Z,1.63
2017-08-19T13:53:48.340Z,1.13
2017-08-19T13:56:14.960Z,1.20
2017-08-19T13:58:41.375Z,1.20
2017-08-19T14:01:07.941Z,1.20
2017-08-19T14:03:38.374Z,1.03
2017-08-19T14:06:04.665Z,1.60
2017-08-19T14:08:31.242Z,1.37
2017-08-19T14:10:58.495Z,1.30
2017-08-19T14:13:24.892Z,1.30
2017-08-19T14:15:51.347Z,1.40
2017-08-19T14:18:17.570Z,1.50
2017-08-19T14:20:44.019Z,1.40
2017-08-19T14:23:10.430Z,1.10
2017-08-19T14:25:36.949Z,1.40
2017-08-19T14:28:07.530Z,1.10
2017-08-19T14:30:34.038Z,1.30
2017-08-19T14:33:00.347Z,1.20
2017-08-19T14:35:26.623Z,1.47
2017-08-19T14:37:52.895Z,1.50
2017-08-19T14:40:19.215Z,1.30
2017-08-19T14:42:45.464Z,1.20
2017-08-19T14:45:11.726Z,1.23
2017-08-19T14:47:37.971Z,1.60
2017-08-19T14:50:04.542Z,1.30
2017-08-19T14:52:30.789Z,2.13
2017-08-19T14:54:57.018Z,1.47
2017-08-19T14:57:23.810Z,1.47
2017-08-19T14:59:50.058Z,1.40
2017-08-19T15:02:16.283Z,1.50
2017-08-19T15:04:42.542Z,2.17
2017-08-19T15:07:09.718Z,1.33
2017-08-19T15:09:46.691Z,1.50
2017-08-19T15:12:13.158Z,1.60
2017-08-19T15:14:39.670Z,1.20
2017-08-19T15:17:06.178Z,1.50
2017-08-19T15:19:32.439Z,1.70
2017-08-19T15:21:58.944Z,1.30
2017-08-19T15:24:26.174Z,1.30
2017-08-19T15:26:53.674Z,1.57
2017-08-19T15:29:20.706Z,1.60
2017-08-19T15:31:47.241Z,1.07
2017-08-19T15:34:13.798Z,1.30
2017-08-19T15:36:40.353Z,1.40
2017-08-19T15:39:07.330Z,1.67
2017-08-19T15:41:33.723Z,1.40
2017-08-19T15:43:59.958Z,1.43
2017-08-19T15:46:26.457Z,1.30
2017-08-19T15:48:53.018Z,1.20
2017-08-19T15:51:19.258Z,1.00
2017-08-19T15:53:45.770Z,1.50
2017-08-19T15:56:12.315Z,1.40
2017-08-19T15:58:38.545Z,1.70
2017-08-19T16:01:04.895Z,1.30
2017-08-19T16:03:31.306Z,1.50
2017-08-19T16:05:57.558Z,1.10
2017-08-19T16:08:24.050Z,1.60
2017-08-19T16:10:50.826Z,1.10
2017-08-19T16:13:17.050Z,1.00
2017-08-19T16:15:43.355Z,1.30
2017-08-19T16:18:09.610Z,1.40
2017-08-19T16:20:35.834Z,0.93
2017-08-19T16:23:02.348Z,1.40
2017-08-19T16:25:28.898Z,1.27
2017-08-19T16:27:55.190Z,1.40
2017-08-19T16:30:21.998Z,1.20
2017-08-19T16:32:48.511Z,1.07
2017-08-19T16:35:14.742Z,1.57
2017-08-19T16:37:40.979Z,1.13
2017-08-19T16:40:07.240Z,1.30
2017-08-19T16:42:34.322Z,1.00
2017-08-19T16:45:00.582Z,1.33
2017-08-19T16:47:26.830Z,1.83
2017-08-19T16:49:53.793Z,1.20
2017-08-19T16:52:20.022Z,1.00
2017-08-19T16:54:46.270Z,1.10
2017-08-19T16:57:12.547Z,1.27
2017-08-19T16:59:38.844Z,1.20
2017-08-19T17:02:05.147Z,1.20
2017-08-19T17:04:31.391Z,1.10
2017-08-19T17:06:57.617Z,1.10
2017-08-19T17:09:23.865Z,1.37
2017-08-19T17:11:50.291Z,1.10
2017-08-19T17:14:16.579Z,1.50
2017-08-19T17:16:43.078Z,1.33
2017-08-19T17:19:09.311Z,1.40
2017-08-19T17:21:35.815Z,1.40
2017-08-19T17:24:02.062Z,1.50
2017-08-19T17:26:28.283Z,1.40
2017-08-19T17:28:54.504Z,1.20
2017-08-19T17:31:21.106Z,1.37
2017-08-19T17:33:48.135Z,1.70
2017-08-19T17:36:15.651Z,1.20
2017-08-19T17:38:41.953Z,1.43
2017-08-19T17:41:08.418Z,1.60
2017-08-19T17:43:34.638Z,1.37
2017-08-19T17:46:01.298Z,1.50
2017-08-19T17:48:27.538Z,1.50
2017-08-19T17:50:53.949Z,1.90
2017-08-19T17:53:20.203Z,1.60
2017-08-19T17:55:46.715Z,1.40
2017-08-19T17:58:12.959Z,1.60
2017-08-19T18:00:39.523Z,1.60
2017-08-19T18:03:06.490Z,1.60
2017-08-19T18:05:32.722Z,1.47
2017-08-19T18:07:59.109Z,1.60
2017-08-19T18:10:25.339Z,1.60
2017-08-19T18:12:51.567Z,1.90
2017-08-19T18:15:17.854Z,1.70
2017-08-19T18:17:44.247Z,1.37
2017-08-19T18:20:10.474Z,1.83
2017-08-19T18:22:36.742Z,1.80
2017-08-19T18:25:04.225Z,1.43
2017-08-19T18:27:30.760Z,2.20
2017-08-19T18:29:57.235Z,1.97
2017-08-19T18:32:23.870Z,1.77
2017-08-19T18:34:50.102Z,1.30
2017-08-19T18:37:16.354Z,1.73
2017-08-19T18:39:42.582Z,2.13
2017-08-19T18:42:09.063Z,1.60
2017-08-19T18:44:35.308Z,2.00
2017-08-19T18:47:01.815Z,2.23
2017-08-19T18:49:28.043Z,1.90
2017-08-19T18:51:54.614Z,2.13
2017-08-19T18:54:21.127Z,2.40
2017-08-19T18:56:47.351Z,2.40
2017-08-19T18:59:13.594Z,2.57
2017-08-19T19:01:39.823Z,1.97
2017-08-19T19:04:06.042Z,2.27
2017-08-19T19:06:32.586Z,3.53
2017-08-19T19:08:58.807Z,2.50
2017-08-19T19:11:25.062Z,1.80
2017-08-19T19:13:51.370Z,2.17
2017-08-19T19:16:17.602Z,2.27
2017-08-19T19:18:43.830Z,1.90
2017-08-19T19:21:10.147Z,2.40
2017-08-19T19:23:36.386Z,2.30
2017-08-19T19:26:03.619Z,2.27
2017-08-19T19:28:29.870Z,1.80
2017-08-19T19:30:56.102Z,2.37
2017-08-19T19:33:22.682Z,2.23
2017-08-19T19:35:48.930Z,3.20
2017-08-19T19:38:15.158Z,5.60
2017-08-19T19:40:41.383Z,3.20
2017-08-19T19:43:07.858Z,2.23
2017-08-19T19:45:34.077Z,2.10
2017-08-19T19:48:00.614Z,1.73
2017-08-19T19:50:26.936Z,1.70
2017-08-19T19:52:53.367Z,2.13
2017-08-19T19:55:19.907Z,2.23
2017-08-19T19:57:46.158Z,2.37
2017-08-19T20:00:12.662Z,2.40
2017-08-19T20:02:39.147Z,1.90
2017-08-19T20:05:06.852Z,2.07
2017-08-19T20:07:33.198Z,2.30
2017-08-19T20:10:01.244Z,2.40
2017-08-19T20:12:28.859Z,3.60
2017-08-19T20:14:58.290Z,2.20
2017-08-19T20:17:24.577Z,2.30
2017-08-19T20:19:51.138Z,2.40
2017-08-19T20:22:18.251Z,2.20
2017-08-19T20:24:44.506Z,2.10
2017-08-19T20:27:11.267Z,2.10
2017-08-19T20:29:37.549Z,2.47
2017-08-19T20:32:04.086Z,2.40
2017-08-19T20:34:30.362Z,2.73
2017-08-19T20:36:56.591Z,3.17
2017-08-19T20:39:23.554Z,5.07
2017-08-19T20:41:49.951Z,3.50
2017-08-19T20:44:16.460Z,3.03
2017-08-19T20:46:42.691Z,3.20
2017-08-19T20:49:09.282Z,2.40
2017-08-19T20:51:35.502Z,3.53
2017-08-19T20:54:01.718Z,3.00
2017-08-19T20:56:28.463Z,2.43
2017-08-19T20:58:54.685Z,2.90
2017-08-19T21:01:20.918Z,3.03
2017-08-19T21:03:47.234Z,3.67
2017-08-19T21:06:13.463Z,3.13
2017-08-19T21:08:39.704Z,2.70
2017-08-19T21:11:06.271Z,3.10
2017-08-19T21:13:32.530Z,2.30
2017-08-19T21:15:58.774Z,2.20
2017-08-19T21:18:25.042Z,3.10
2017-08-19T21:20:51.267Z,2.87
2017-08-19T21:23:17.490Z,2.00
2017-08-19T21:25:43.911Z,2.70
2017-08-19T21:28:10.130Z,2.40
2017-08-19T21:30:36.350Z,2.10
2017-08-19T21:33:03.026Z,1.80
2017-08-19T21:35:29.761Z,2.53
2017-08-19T21:37:55.995Z,2.90
2017-08-19T21:40:22.243Z,2.20
2017-08-19T21:42:48.463Z,2.97
2017-08-19T21:45:14.706Z,2.50
2017-08-19T21:47:40.964Z,3.23
2017-08-19T21:50:07.406Z,2.20
2017-08-19T21:52:33.638Z,2.67
2017-08-19T21:54:59.967Z,2.90
2017-08-19T21:57:26.214Z,2.70
2017-08-19T21:59:52.439Z,3.00
2017-08-19T22:02:18.874Z,2.83
2017-08-19T22:04:45.106Z,2.80
2017-08-19T22:07:11.334Z,2.03
2017-08-19T22:09:37.586Z,2.30
2017-08-19T22:12:03.814Z,2.47
2017-08-19T22:14:30.807Z,2.03
2017-08-19T22:16:57.126Z,2.60
2017-08-19T22:19:23.403Z,2.90
2017-08-19T22:21:49.622Z,2.80
2017-08-19T22:24:15.882Z,2.07
2017-08-19T22:26:42.115Z,2.30
2017-08-19T22:29:08.344Z,2.30
2017-08-19T22:31:34.599Z,2.43
2017-08-19T22:34:00.844Z,2.10
2017-08-19T22:36:27.439Z,2.47
2017-08-19T22:38:54.002Z,2.50
2017-08-19T22:41:20.235Z,8.00
2017-08-19T22:43:46.472Z,3.10
2017-08-19T22:46:12.830Z,4.03
2017-08-19T22:48:39.058Z,3.20
2017-08-19T22:51:05.282Z,2.87
2017-08-19T22:53:31.542Z,2.53
2017-08-19T22:55:57.779Z,3.17
2017-08-19T22:58:24.010Z,3.40
2017-08-19T23:00:51.036Z,3.30
2017-08-19T23:03:17.293Z,2.80
2017-08-19T23:05:43.519Z,3.40
2017-08-19T23:08:09.770Z,2.30
2017-08-19T23:10:36.009Z,2.83
2017-08-19T23:13:02.235Z,2.90
2017-08-19T23:15:28.498Z,2.90
2017-08-19T23:17:54.727Z,2.70
2017-08-19T23:20:20.962Z,2.77
2017-08-19T23:22:47.551Z,2.70
2017-08-19T23:25:13.770Z,3.00
2017-08-19T23:27:40.017Z,3.40
2017-08-19T23:30:06.271Z,3.00
2017-08-19T23:32:32.490Z,2.50
2017-08-19T23:34:58.728Z,3.20
2017-08-19T23:37:25.182Z,2.67
2017-08-19T23:39:51.598Z,2.50
2017-08-19T23:42:17.900Z,2.47
2017-08-19T23:44:44.687Z,2.70
2017-08-19T23:47:10.906Z,2.57
2017-08-19T23:49:37.146Z,2.40
2017-08-19T23:52:03.390Z,2.07
2017-08-19T23:54:29.649Z,2.83
2017-08-19T23:56:55.897Z,2.27
2017-08-19T23:59:22.446Z,2.97
